Time;durP1;ratioP1;P1;durP2;ratioP2;P2;SDS_P1;SDS_P2;PMS_P1;PMS_P2;Temp;Humidity;BMP_temperature;BMP_pressure;BME280_temperature;BME280_humidity;BME280_pressure;Samples;Min_cycle;Max_cycle;Signal;HPM_P1;HPM_P2
2023/05/20 00:00:56;;;;;;;21.93;20.60;;;;;;;;;;5028271;28;20451;-80
2023/05/20 00:03:22;;;;;;;36.73;34.57;;;;;;;;;;5035270;28;20437;-80
2023/05/20 00:05:48;;;;;;;28.33;26.70;;;;;;;;;;5020441;28;20468;-80
2023/05/20 00:08:15;;;;;;;417.03;355.37;;;;;;;;;;5039326;28;20438;-78
2023/05/20 00:10:41;;;;;;;392.80;332.33;;;;;;;;;;5034689;28;20446;-79
2023/05/20 00:13:07;;;;;;;415.30;333.60;;;;;;;;;;5034368;28;20431;-79
2023/05/20 00:15:33;;;;;;;405.40;338.83;;;;;;;;;;5036555;28;20439;-80
2023/05/20 00:18:00;;;;;;;399.87;327.13;;;;;;;;;;5034504;28;20434;-78
2023/05/20 00:20:26;;;;;;;327.97;296.20;;;;;;;;;;5024642;28;20952;-80
2023/05/20 00:22:52;;;;;;;419.60;329.93;;;;;;;;;;5015525;28;20696;-79
2023/05/20 00:25:18;;;;;;;422.27;328.80;;;;;;;;;;5026885;28;20457;-79
2023/05/20 00:27:45;;;;;;;386.23;346.23;;;;;;;;;;5032714;28;20457;-80
2023/05/20 00:30:11;;;;;;;116.70;109.90;;;;;;;;;;5021593;28;20455;-80
2023/05/20 00:32:37;;;;;;;64.60;61.00;;;;;;;;;;5030973;28;20956;-79
2023/05/20 00:35:03;;;;;;;82.80;78.10;;;;;;;;;;5025587;28;20875;-78
2023/05/20 00:37:29;;;;;;;205.40;191.53;;;;;;;;;;5034603;28;20437;-79
2023/05/20 00:39:56;;;;;;;220.60;205.20;;;;;;;;;;5029335;28;20454;-79
2023/05/20 00:42:26;;;;;;;330.40;302.57;;;;;;;;;;5033376;28;20449;-80
2023/05/20 00:44:52;;;;;;;328.40;302.40;;;;;;;;;;5024885;28;21125;-79
2023/05/20 00:47:20;;;;;;;341.53;305.63;;;;;;;;;;5038000;28;20800;-81
2023/05/20 00:49:46;;;;;;;378.53;317.27;;;;;;;;;;5021993;28;20797;-78
2023/05/20 00:52:13;;;;;;;411.03;336.53;;;;;;;;;;5027360;28;20793;-80
2023/05/20 00:54:40;;;;;;;50.73;47.13;;;;;;;;;;5024378;28;20452;-80
2023/05/20 00:57:06;;;;;;;386.67;324.83;;;;;;;;;;5015252;28;20449;-79
2023/05/20 00:59:36;;;;;;;419.60;317.73;;;;;;;;;;5014866;28;20435;-80
2023/05/20 01:02:03;;;;;;;396.00;328.23;;;;;;;;;;5028981;28;20445;-80
2023/05/20 01:04:30;;;;;;;400.30;313.27;;;;;;;;;;5030903;28;20507;-80
2023/05/20 01:06:56;;;;;;;396.40;300.13;;;;;;;;;;5038420;28;20453;-79
2023/05/20 01:09:22;;;;;;;399.83;302.33;;;;;;;;;;5033958;28;20541;-80
2023/05/20 01:11:52;;;;;;;420.13;305.73;;;;;;;;;;5013235;28;20439;-81
2023/05/20 01:14:18;;;;;;;432.67;321.33;;;;;;;;;;5048274;28;20447;-81
2023/05/20 01:16:46;;;;;;;425.20;318.57;;;;;;;;;;5028211;28;20426;-80
2023/05/20 01:19:27;;;;;;;405.53;294.53;;;;;;;;;;5012347;28;20798;-79
2023/05/20 01:21:53;;;;;;;85.03;80.20;;;;;;;;;;5030120;28;20467;-78
2023/05/20 01:24:19;;;;;;;81.97;77.30;;;;;;;;;;5021093;28;20474;-79
2023/05/20 01:26:47;;;;;;;147.27;137.90;;;;;;;;;;5035549;28;20420;-80
2023/05/20 01:29:17;;;;;;;208.93;193.43;;;;;;;;;;5023737;28;20979;-80
2023/05/20 01:31:43;;;;;;;236.63;219.60;;;;;;;;;;5036400;28;20414;-79
2023/05/20 01:34:09;;;;;;;82.70;78.13;;;;;;;;;;5026899;28;20556;-79
2023/05/20 01:36:35;;;;;;;197.00;182.90;;;;;;;;;;5025434;28;20918;-80
2023/05/20 01:39:04;;;;;;;350.10;302.13;;;;;;;;;;5019290;28;20458;-80
2023/05/20 01:41:33;;;;;;;445.73;291.73;;;;;;;;;;5037775;28;20422;-80
2023/05/20 01:43:59;;;;;;;445.33;354.47;;;;;;;;;;5037187;28;20458;-80
2023/05/20 01:46:25;;;;;;;439.73;291.90;;;;;;;;;;5027933;28;20924;-80
2023/05/20 01:48:51;;;;;;;514.23;433.67;;;;;;;;;;5036981;28;20544;-80
2023/05/20 01:51:17;;;;;;;437.70;291.30;;;;;;;;;;5025546;28;20407;-80
2023/05/20 01:53:43;;;;;;;443.37;296.90;;;;;;;;;;5029733;28;20426;-79
2023/05/20 01:56:09;;;;;;;471.60;290.43;;;;;;;;;;5033504;28;20409;-80
2023/05/20 01:58:35;;;;;;;523.10;321.57;;;;;;;;;;5036941;28;20425;-80
2023/05/20 02:01:02;;;;;;;525.63;319.40;;;;;;;;;;5030209;28;20444;-80
2023/05/20 02:03:28;;;;;;;525.77;311.87;;;;;;;;;;5025862;28;20965;-80
2023/05/20 02:05:54;;;;;;;436.53;293.67;;;;;;;;;;5024816;28;20587;-80
2023/05/20 02:08:20;;;;;;;440.27;292.00;;;;;;;;;;5037278;28;20482;-80
2023/05/20 02:10:48;;;;;;;627.73;320.93;;;;;;;;;;5025269;28;20439;-79
2023/05/20 02:13:14;;;;;;;635.70;321.00;;;;;;;;;;5034499;28;21024;-79
2023/05/20 02:15:43;;;;;;;26.57;25.10;;;;;;;;;;5026652;28;20286;-80
2023/05/20 02:18:11;;;;;;;626.63;311.85;;;;;;;;;;5033758;28;20426;-79
2023/05/20 02:20:37;;;;;;;626.43;320.40;;;;;;;;;;5025847;28;20183;-79
2023/05/20 02:23:07;;;;;;;534.63;307.43;;;;;;;;;;5027552;28;20413;-78
2023/05/20 02:25:33;;;;;;;45.10;42.57;;;;;;;;;;5015242;28;20989;-80
2023/05/20 02:27:59;;;;;;;588.67;320.40;;;;;;;;;;5032731;28;20489;-79
2023/05/20 02:30:26;;;;;;;630.47;309.48;;;;;;;;;;5013483;28;20974;-80
2023/05/20 02:32:52;;;;;;;619.72;310.80;;;;;;;;;;5030604;28;20191;-79
2023/05/20 02:35:18;;;;;;;26.30;24.90;;;;;;;;;;5024093;28;20195;-80
2023/05/20 02:37:45;;;;;;;117.57;110.53;;;;;;;;;;5029477;28;20447;-80
2023/05/20 02:40:11;;;;;;;564.15;301.45;;;;;;;;;;5034100;28;20438;-79
2023/05/20 02:42:37;;;;;;;500.77;299.00;;;;;;;;;;5036216;28;20187;-80
2023/05/20 02:45:03;;;;;;;17.10;16.23;;;;;;;;;;5024446;28;20477;-80
2023/05/20 02:47:29;;;;;;;10.10;8.70;;;;;;;;;;5029260;28;20461;-80
2023/05/20 02:49:55;;;;;;;9.43;8.93;;;;;;;;;;5026408;28;20439;-79
2023/05/20 02:52:21;;;;;;;11.00;10.30;;;;;;;;;;5004445;28;20542;-80
2023/05/20 02:54:47;;;;;;;12.10;11.20;;;;;;;;;;5023495;28;20561;-80
2023/05/20 02:57:13;;;;;;;20.27;19.03;;;;;;;;;;5032954;28;20425;-79
2023/05/20 02:59:39;;;;;;;24.67;23.20;;;;;;;;;;5017719;28;20454;-79
2023/05/20 03:02:05;;;;;;;39.93;37.20;;;;;;;;;;5032500;28;20777;-80
2023/05/20 03:04:31;;;;;;;29.70;28.10;;;;;;;;;;5022004;28;20478;-80
2023/05/20 03:06:57;;;;;;;48.97;46.33;;;;;;;;;;5062496;28;20478;-79
2023/05/20 03:09:23;;;;;;;10.83;10.30;;;;;;;;;;5060047;28;20439;-79
2023/05/20 03:11:50;;;;;;;11.77;11.10;;;;;;;;;;5042891;28;20492;-80
2023/05/20 03:14:15;;;;;;;14.00;13.20;;;;;;;;;;5017682;28;20441;-80
2023/05/20 03:16:41;;;;;;;20.87;19.57;;;;;;;;;;5028707;28;20415;-79
2023/05/20 03:19:07;;;;;;;29.57;27.77;;;;;;;;;;5036027;28;20442;-79
2023/05/20 03:21:33;;;;;;;47.83;44.80;;;;;;;;;;5024199;28;20948;-79
2023/05/20 03:23:59;;;;;;;99.30;92.77;;;;;;;;;;5031067;28;20461;-80
2023/05/20 03:26:26;;;;;;;97.23;91.40;;;;;;;;;;5034372;28;20425;-79
2023/05/20 03:28:52;;;;;;;110.80;102.50;;;;;;;;;;5033095;28;20490;-79
2023/05/20 03:31:18;;;;;;;25.97;24.50;;;;;;;;;;5026087;28;20446;-80
2023/05/20 03:33:44;;;;;;;65.03;60.07;;;;;;;;;;5022477;28;20466;-79
2023/05/20 03:36:10;;;;;;;37.63;35.03;;;;;;;;;;5018445;28;20437;-80
2023/05/20 03:38:36;;;;;;;24.70;22.93;;;;;;;;;;5024381;28;20430;-80
2023/05/20 03:41:02;;;;;;;24.57;22.97;;;;;;;;;;5022476;28;20517;-80
2023/05/20 03:43:28;;;;;;;19.67;18.63;;;;;;;;;;5005440;28;20439;-80
2023/05/20 03:45:55;;;;;;;18.00;16.73;;;;;;;;;;5020989;28;20446;-80
2023/05/20 03:48:21;;;;;;;38.00;35.80;;;;;;;;;;5022215;28;20533;-79
2023/05/20 03:50:47;;;;;;;21.67;20.30;;;;;;;;;;5014538;28;20446;-80
2023/05/20 03:53:13;;;;;;;40.93;38.53;;;;;;;;;;5020688;28;20450;-81
2023/05/20 03:55:39;;;;;;;40.97;38.57;;;;;;;;;;5020593;28;21220;-79
2023/05/20 03:58:05;;;;;;;69.50;64.73;;;;;;;;;;5030498;28;20672;-80
2023/05/20 04:00:31;;;;;;;13.03;12.30;;;;;;;;;;5032133;28;20436;-80
2023/05/20 04:02:58;;;;;;;22.80;21.53;;;;;;;;;;5033884;28;20439;-82
2023/05/20 04:05:24;;;;;;;32.47;30.80;;;;;;;;;;5027569;28;20730;-80
2023/05/20 04:07:50;;;;;;;51.80;49.03;;;;;;;;;;5027335;28;20463;-80
2023/05/20 04:10:18;;;;;;;136.03;126.60;;;;;;;;;;5015245;28;20438;-78
2023/05/20 04:12:44;;;;;;;87.80;82.47;;;;;;;;;;5031884;28;20418;-79
2023/05/20 04:15:10;;;;;;;126.50;118.40;;;;;;;;;;5036389;28;20449;-79
2023/05/20 04:17:39;;;;;;;14.87;13.77;;;;;;;;;;5023587;28;20415;-79
2023/05/20 04:20:06;;;;;;;38.73;36.60;;;;;;;;;;5031842;28;20429;-79
2023/05/20 04:22:32;;;;;;;27.87;26.40;;;;;;;;;;5034535;28;20960;-80
2023/05/20 04:24:58;;;;;;;15.10;14.00;;;;;;;;;;5038426;28;20531;-79
2023/05/20 04:27:24;;;;;;;37.27;35.27;;;;;;;;;;5028118;28;20446;-79
2023/05/20 04:29:51;;;;;;;12.10;11.17;;;;;;;;;;5035445;28;20494;-80
2023/05/20 04:32:18;;;;;;;10.17;9.67;;;;;;;;;;5022294;28;20459;-80
2023/05/20 04:34:45;;;;;;;87.77;82.57;;;;;;;;;;5037055;28;20485;-80
2023/05/20 04:37:11;;;;;;;10.97;10.20;;;;;;;;;;5029319;28;20466;-79
2023/05/20 04:39:38;;;;;;;10.70;9.80;;;;;;;;;;5037515;28;20431;-80
2023/05/20 04:42:04;;;;;;;18.63;17.37;;;;;;;;;;5027813;28;20448;-79
2023/05/20 04:44:30;;;;;;;246.77;230.33;;;;;;;;;;5034708;28;20753;-79
2023/05/20 04:46:56;;;;;;;9.93;9.03;;;;;;;;;;5023797;28;21071;-80
2023/05/20 04:49:24;;;;;;;10.20;9.50;;;;;;;;;;5024882;28;20929;-80
2023/05/20 04:51:51;;;;;;;10.27;9.60;;;;;;;;;;5012631;28;20442;-80
2023/05/20 04:54:17;;;;;;;11.40;10.33;;;;;;;;;;5028198;28;20586;-81
2023/05/20 04:56:43;;;;;;;12.67;11.73;;;;;;;;;;5030802;28;20447;-80
2023/05/20 04:59:09;;;;;;;15.43;14.17;;;;;;;;;;5039394;28;20457;-81
2023/05/20 05:01:36;;;;;;;15.40;14.50;;;;;;;;;;5027640;28;20431;-80
2023/05/20 05:04:02;;;;;;;9.23;8.67;;;;;;;;;;5055161;28;20479;-79
2023/05/20 05:06:28;;;;;;;20.03;18.27;;;;;;;;;;5045005;28;20435;-80
2023/05/20 05:08:54;;;;;;;91.87;87.67;;;;;;;;;;5057505;28;20433;-79
2023/05/20 05:11:21;;;;;;;266.70;252.30;;;;;;;;;;5026926;28;20447;-79
2023/05/20 05:13:46;;;;;;;186.73;177.03;;;;;;;;;;5029595;28;20436;-81
2023/05/20 05:16:12;;;;;;;563.93;506.57;;;;;;;;;;5021954;28;20454;-80
2023/05/20 05:18:38;;;;;;;674.93;554.30;;;;;;;;;;5015443;28;20505;-80
2023/05/20 05:21:05;;;;;;;8.57;8.13;;;;;;;;;;5024786;28;20721;-79
2023/05/20 05:23:32;;;;;;;10.87;6.70;;;;;;;;;;5034369;28;20828;-80
2023/05/20 05:25:58;;;;;;;7.40;6.63;;;;;;;;;;5021785;28;21209;-81
2023/05/20 05:28:24;;;;;;;6.50;6.20;;;;;;;;;;5019855;28;20672;-80
2023/05/20 05:30:50;;;;;;;8.17;7.53;;;;;;;;;;5011306;28;20446;-81
2023/05/20 05:33:16;;;;;;;6.30;6.00;;;;;;;;;;5021554;28;21201;-80
2023/05/20 05:35:43;;;;;;;6.90;6.37;;;;;;;;;;5022963;28;20466;-80
2023/05/20 05:38:09;;;;;;;7.33;6.83;;;;;;;;;;5023930;28;20403;-81
2023/05/20 05:40:36;;;;;;;7.20;6.70;;;;;;;;;;5012953;28;20449;-80
2023/05/20 05:43:02;;;;;;;5.53;5.30;;;;;;;;;;5013570;28;20459;-79
2023/05/20 05:45:28;;;;;;;7.10;6.80;;;;;;;;;;5031786;28;20474;-80
2023/05/20 05:47:54;;;;;;;7.33;6.93;;;;;;;;;;5022190;28;20449;-78
2023/05/20 05:50:20;;;;;;;20.37;18.60;;;;;;;;;;5024327;28;21101;-81
2023/05/20 05:52:46;;;;;;;7.80;6.80;;;;;;;;;;5017654;28;20935;-81
2023/05/20 05:55:12;;;;;;;25.20;23.13;;;;;;;;;;5015914;28;20446;-80
2023/05/20 05:57:38;;;;;;;7.40;6.80;;;;;;;;;;5035786;28;20410;-81
2023/05/20 06:00:04;;;;;;;15.17;14.03;;;;;;;;;;5021261;28;20550;-80
2023/05/20 06:02:34;;;;;;;7.60;7.20;;;;;;;;;;5019878;28;20442;-80
2023/05/20 06:05:01;;;;;;;6.80;6.37;;;;;;;;;;5026993;28;20502;-79
2023/05/20 06:07:27;;;;;;;6.93;6.20;;;;;;;;;;5022340;28;20427;-80
2023/05/20 06:09:53;;;;;;;6.47;6.17;;;;;;;;;;5027399;28;20991;-79
2023/05/20 06:12:20;;;;;;;6.40;6.10;;;;;;;;;;5000535;28;20454;-80
2023/05/20 06:14:46;;;;;;;7.73;7.10;;;;;;;;;;5033797;28;20438;-80
2023/05/20 06:17:12;;;;;;;6.63;6.33;;;;;;;;;;5027432;28;20437;-81
2023/05/20 06:19:38;;;;;;;7.10;6.73;;;;;;;;;;5025553;28;20893;-80
2023/05/20 06:22:05;;;;;;;7.00;6.70;;;;;;;;;;5005197;28;20466;-80
2023/05/20 06:24:31;;;;;;;9.57;8.70;;;;;;;;;;5034352;28;20514;-80
2023/05/20 06:26:57;;;;;;;7.70;7.27;;;;;;;;;;5023177;28;20835;-80
2023/05/20 06:29:23;;;;;;;8.30;7.80;;;;;;;;;;5029056;28;20407;-80
2023/05/20 06:31:49;;;;;;;7.90;7.50;;;;;;;;;;5019302;28;20794;-80
2023/05/20 06:34:15;;;;;;;9.13;8.60;;;;;;;;;;5039467;28;20937;-80
2023/05/20 06:36:41;;;;;;;9.07;8.50;;;;;;;;;;5029389;28;20871;-80
2023/05/20 06:39:11;;;;;;;9.27;8.77;;;;;;;;;;5003653;28;21045;-80
2023/05/20 06:41:37;;;;;;;13.47;12.43;;;;;;;;;;5025162;28;20901;-80
2023/05/20 06:44:03;;;;;;;8.30;7.90;;;;;;;;;;5017516;28;20703;-81
2023/05/20 06:46:29;;;;;;;8.67;7.83;;;;;;;;;;5025874;28;20423;-80
2023/05/20 06:48:55;;;;;;;9.07;8.33;;;;;;;;;;5033928;28;20900;-79
2023/05/20 06:51:21;;;;;;;10.33;9.47;;;;;;;;;;5033701;28;20438;-80
2023/05/20 06:53:48;;;;;;;10.13;9.50;;;;;;;;;;5023486;28;20532;-81
2023/05/20 06:56:14;;;;;;;9.97;9.37;;;;;;;;;;5027882;28;20672;-81
2023/05/20 06:58:40;;;;;;;10.70;9.90;;;;;;;;;;5018212;28;20439;-80
2023/05/20 07:01:06;;;;;;;10.00;9.30;;;;;;;;;;5029161;28;20468;-79
2023/05/20 07:03:32;;;;;;;13.90;12.83;;;;;;;;;;5040120;28;20545;-80
2023/05/20 07:05:58;;;;;;;704.00;632.33;;;;;;;;;;5030502;28;20426;-80
2023/05/20 07:08:24;;;;;;;735.67;655.00;;;;;;;;;;5021747;28;20440;-80
2023/05/20 07:10:50;;;;;;;715.73;644.57;;;;;;;;;;5008670;28;20419;-81
2023/05/20 07:13:16;;;;;;;780.07;690.20;;;;;;;;;;5011728;28;20438;-80
2023/05/20 07:15:46;;;;;;;18.17;16.67;;;;;;;;;;5007108;28;20457;-80
2023/05/20 07:18:12;;;;;;;9.40;8.77;;;;;;;;;;5012603;28;20438;-80
2023/05/20 07:20:38;;;;;;;11.20;10.40;;;;;;;;;;5023578;28;20427;-80
2023/05/20 07:23:04;;;;;;;9.10;8.47;;;;;;;;;;5023944;28;20447;-80
2023/05/20 07:25:30;;;;;;;12.50;11.40;;;;;;;;;;5015029;28;21016;-78
2023/05/20 07:27:56;;;;;;;9.47;8.83;;;;;;;;;;5026938;28;20487;-80
2023/05/20 07:30:22;;;;;;;10.40;9.70;;;;;;;;;;5024826;28;20533;-80
2023/05/20 07:32:48;;;;;;;17.50;10.23;;;;;;;;;;5006173;28;20450;-79
2023/05/20 07:35:14;;;;;;;11.13;10.43;;;;;;;;;;5029008;28;20466;-80
2023/05/20 07:37:40;;;;;;;10.90;10.20;;;;;;;;;;5014543;28;20806;-79
2023/05/20 07:40:06;;;;;;;10.60;9.90;;;;;;;;;;5020860;28;20435;-79
2023/05/20 07:42:33;;;;;;;8.70;8.20;;;;;;;;;;5020801;28;20457;-77
2023/05/20 07:44:59;;;;;;;9.83;9.13;;;;;;;;;;5028855;28;20563;-80
2023/05/20 07:47:25;;;;;;;8.80;8.30;;;;;;;;;;5020926;28;21025;-79
2023/05/20 07:49:51;;;;;;;11.03;10.43;;;;;;;;;;5018925;28;20780;-79
2023/05/20 07:52:17;;;;;;;8.67;8.27;;;;;;;;;;5015837;28;20430;-79
2023/05/20 07:54:42;;;;;;;12.47;11.27;;;;;;;;;;5029909;28;20926;-79
2023/05/20 07:57:08;;;;;;;9.87;9.17;;;;;;;;;;5017956;28;20565;-78
2023/05/20 07:59:34;;;;;;;13.33;12.23;;;;;;;;;;5021496;28;20446;-79
2023/05/20 08:02:00;;;;;;;8.40;7.90;;;;;;;;;;5016778;28;20438;-79
2023/05/20 08:04:26;;;;;;;9.73;7.63;;;;;;;;;;5003145;28;20460;-79
2023/05/20 08:06:53;;;;;;;10.17;9.43;;;;;;;;;;5020626;28;20439;-78
2023/05/20 08:09:20;;;;;;;8.43;7.90;;;;;;;;;;5022238;28;20430;-80
2023/05/20 08:11:46;;;;;;;9.23;8.53;;;;;;;;;;5016896;28;20427;-79
2023/05/20 08:14:12;;;;;;;9.67;8.80;;;;;;;;;;5005199;28;20399;-79
2023/05/20 08:16:38;;;;;;;24.10;22.17;;;;;;;;;;5004158;28;21243;-80
2023/05/20 08:19:04;;;;;;;7.50;7.10;;;;;;;;;;4996460;28;20446;-80
2023/05/20 08:21:30;;;;;;;30.07;27.47;;;;;;;;;;5017563;28;20509;-79
2023/05/20 08:23:56;;;;;;;8.90;8.30;;;;;;;;;;5020676;28;20458;-79
2023/05/20 08:26:22;;;;;;;9.67;9.10;;;;;;;;;;5021858;28;20855;-78
2023/05/20 08:28:48;;;;;;;10.30;9.43;;;;;;;;;;5000426;28;20985;-79
2023/05/20 08:31:14;;;;;;;9.77;8.60;;;;;;;;;;5016113;28;20509;-78
2023/05/20 08:33:40;;;;;;;8.43;7.83;;;;;;;;;;5028066;28;20696;-79
2023/05/20 08:36:07;;;;;;;8.93;8.33;;;;;;;;;;5014668;28;20469;-78
2023/05/20 08:38:33;;;;;;;8.23;7.57;;;;;;;;;;5019897;28;20454;-79
2023/05/20 08:40:59;;;;;;;8.97;8.37;;;;;;;;;;5024253;28;20811;-79
2023/05/20 08:43:26;;;;;;;9.50;8.90;;;;;;;;;;5023024;28;20773;-78
2023/05/20 08:45:52;;;;;;;10.03;9.23;;;;;;;;;;5026649;28;20882;-80
2023/05/20 08:48:19;;;;;;;8.93;8.33;;;;;;;;;;5027920;28;20816;-80
2023/05/20 08:50:50;;;;;;;9.53;8.90;;;;;;;;;;5027648;28;20935;-80
2023/05/20 08:53:16;;;;;;;9.57;8.67;;;;;;;;;;5033068;28;20438;-81
2023/05/20 08:55:43;;;;;;;8.27;7.63;;;;;;;;;;5023801;28;20440;-81
2023/05/20 08:58:09;;;;;;;9.83;8.90;;;;;;;;;;5010859;28;20478;-80
2023/05/20 09:00:36;;;;;;;10.50;9.40;;;;;;;;;;5040313;28;20432;-81
2023/05/20 09:03:03;;;;;;;8.17;7.67;;;;;;;;;;5044050;28;20450;-81
2023/05/20 09:05:29;;;;;;;6.23;5.93;;;;;;;;;;5056940;28;20513;-81
2023/05/20 09:08:05;;;;;;;8.17;7.67;;;;;;;;;;5028183;28;20767;-81
2023/05/20 09:10:32;;;;;;;8.87;8.07;;;;;;;;;;5014158;28;20481;-81
2023/05/20 09:12:59;;;;;;;9.30;8.57;;;;;;;;;;5003099;28;20824;-79
2023/05/20 09:15:25;;;;;;;8.83;8.23;;;;;;;;;;5040249;28;20409;-79
2023/05/20 09:17:51;;;;;;;9.03;8.43;;;;;;;;;;5023070;28;20443;-81
2023/05/20 09:20:17;;;;;;;8.17;7.67;;;;;;;;;;5035488;28;20739;-79
2023/05/20 09:22:43;;;;;;;8.27;7.77;;;;;;;;;;5010840;28;20541;-81
2023/05/20 09:25:11;;;;;;;10.33;9.53;;;;;;;;;;5024461;28;20537;-80
2023/05/20 09:27:37;;;;;;;8.60;8.00;;;;;;;;;;5010157;28;20442;-81
2023/05/20 09:30:06;;;;;;;8.57;8.03;;;;;;;;;;5014150;28;20433;-81
2023/05/20 09:32:32;;;;;;;9.13;8.53;;;;;;;;;;5018387;28;20437;-80
2023/05/20 09:35:00;;;;;;;8.70;8.13;;;;;;;;;;5030563;28;20407;-81
2023/05/20 09:37:27;;;;;;;23.97;22.27;;;;;;;;;;5012965;28;20426;-80
2023/05/20 09:39:57;;;;;;;11.47;10.60;;;;;;;;;;5022305;28;20419;-80
2023/05/20 09:42:37;;;;;;;22.33;20.57;;;;;;;;;;5027908;28;20437;-81
2023/05/20 09:45:04;;;;;;;11.43;10.00;;;;;;;;;;5026366;28;20828;-79
2023/05/20 09:47:30;;;;;;;10.30;9.50;;;;;;;;;;5011856;28;20468;-80
2023/05/20 09:49:57;;;;;;;8.53;7.73;;;;;;;;;;5020829;28;20517;-80
2023/05/20 09:52:23;;;;;;;22.10;20.13;;;;;;;;;;5013627;28;20422;-80
2023/05/20 09:54:50;;;;;;;10.10;9.20;;;;;;;;;;5012065;28;20415;-77
2023/05/20 09:57:16;;;;;;;12.43;11.60;;;;;;;;;;5026557;28;20437;-81
2023/05/20 09:59:43;;;;;;;26.67;24.40;;;;;;;;;;5016917;28;20447;-80
2023/05/20 10:02:09;;;;;;;10.83;10.10;;;;;;;;;;5017804;28;20421;-80
2023/05/20 10:04:37;;;;;;;15.47;14.27;;;;;;;;;;5019945;28;20527;-81
2023/05/20 10:07:22;;;;;;;10.03;9.43;;;;;;;;;;5016497;28;20454;-82
2023/05/20 10:10:02;;;;;;;10.87;9.87;;;;;;;;;;5036956;28;20928;-81
2023/05/20 10:12:47;;;;;;;9.70;8.90;;;;;;;;;;5024676;28;20442;-81
2023/05/20 10:15:17;;;;;;;10.57;9.67;;;;;;;;;;5030474;28;20612;-82
2023/05/20 10:17:44;;;;;;;12.80;11.70;;;;;;;;;;5022362;28;20450;-81
2023/05/20 10:20:13;;;;;;;9.93;9.27;;;;;;;;;;5026386;28;20620;-81
2023/05/20 10:22:39;;;;;;;10.67;10.03;;;;;;;;;;5029686;28;20598;-81
2023/05/20 10:25:06;;;;;;;9.07;8.50;;;;;;;;;;5035355;28;20882;-81
2023/05/20 10:27:47;;;;;;;10.10;9.50;;;;;;;;;;5031754;28;21146;-79
2023/05/20 10:30:20;;;;;;;11.73;10.77;;;;;;;;;;5011961;28;20443;-79
2023/05/20 10:32:55;;;;;;;11.33;10.43;;;;;;;;;;5022243;28;20449;-79
2023/05/20 10:35:22;;;;;;;10.63;9.77;;;;;;;;;;5011261;28;20437;-79
2023/05/20 10:37:48;;;;;;;9.90;9.20;;;;;;;;;;5033539;28;20724;-80
2023/05/20 10:40:14;;;;;;;9.47;8.67;;;;;;;;;;5027416;28;20669;-80
2023/05/20 10:42:41;;;;;;;10.60;9.47;;;;;;;;;;5041916;28;20399;-82
2023/05/20 10:45:07;;;;;;;10.97;10.07;;;;;;;;;;5035134;28;20902;-79
2023/05/20 10:47:36;;;;;;;8.87;8.27;;;;;;;;;;5022427;28;20474;-80
2023/05/20 10:50:06;;;;;;;10.47;9.60;;;;;;;;;;5034022;28;20462;-82
2023/05/20 10:52:33;;;;;;;10.37;9.40;;;;;;;;;;5025460;28;20426;-82
2023/05/20 10:55:00;;;;;;;9.63;8.90;;;;;;;;;;5034768;28;20533;-82
2023/05/20 10:57:27;;;;;;;10.33;9.47;;;;;;;;;;5031682;28;20437;-84
2023/05/20 10:59:53;;;;;;;16.77;15.23;;;;;;;;;;5057140;28;20451;-83
2023/05/20 11:02:27;;;;;;;9.23;8.70;;;;;;;;;;5050569;28;20424;-80
2023/05/20 11:04:53;;;;;;;16.63;15.13;;;;;;;;;;5051596;28;20461;-81
2023/05/20 11:07:29;;;;;;;10.73;9.87;;;;;;;;;;5034739;28;20452;-83
2023/05/20 11:09:55;;;;;;;11.10;10.30;;;;;;;;;;5006516;28;21566;-84
2023/05/20 11:12:22;;;;;;;9.00;8.33;;;;;;;;;;5025014;28;20421;-81
2023/05/20 11:14:48;;;;;;;12.07;11.07;;;;;;;;;;4994493;28;20530;-82
2023/05/20 11:17:16;;;;;;;11.17;10.37;;;;;;;;;;5023835;28;20442;-86
2023/05/20 11:19:42;;;;;;;11.50;10.73;;;;;;;;;;5036238;28;20491;-78
2023/05/20 11:22:08;;;;;;;10.20;9.40;;;;;;;;;;5030533;28;20696;-80
2023/05/20 11:24:34;;;;;;;11.27;10.57;;;;;;;;;;5007164;28;20474;-81
2023/05/20 11:27:01;;;;;;;9.83;9.17;;;;;;;;;;5047981;28;20451;-85
2023/05/20 11:29:30;;;;;;;8.90;8.17;;;;;;;;;;5039894;28;20500;-82
2023/05/20 11:31:57;;;;;;;10.27;9.47;;;;;;;;;;5030996;28;20830;-83
2023/05/20 11:34:23;;;;;;;10.37;9.37;;;;;;;;;;5025618;28;20435;-85
2023/05/20 11:36:56;;;;;;;12.57;11.57;;;;;;;;;;5032937;28;20477;-84
2023/05/20 11:39:22;;;;;;;9.87;9.17;;;;;;;;;;5018322;28;20877;-84
2023/05/20 11:41:48;;;;;;;8.27;7.60;;;;;;;;;;5047092;28;20525;-85
2023/05/20 11:44:14;;;;;;;9.20;8.70;;;;;;;;;;5031896;28;20490;-84
2023/05/20 11:46:46;;;;;;;9.60;8.97;;;;;;;;;;5024897;28;20861;-85
2023/05/20 11:49:12;;;;;;;11.10;7.57;;;;;;;;;;5030839;28;20434;-83
2023/05/20 11:51:39;;;;;;;9.60;8.77;;;;;;;;;;5018524;28;20442;-84
2023/05/20 11:54:06;;;;;;;9.60;8.73;;;;;;;;;;5035624;28;20512;-85
2023/05/20 11:56:36;;;;;;;10.77;9.40;;;;;;;;;;5036236;28;20435;-85
2023/05/20 11:59:02;;;;;;;8.67;8.07;;;;;;;;;;5032400;28;20530;-85
2023/05/20 12:01:32;;;;;;;8.87;8.13;;;;;;;;;;5037274;28;20487;-86
2023/05/20 12:03:59;;;;;;;9.00;8.50;;;;;;;;;;5032834;28;20550;-84
2023/05/20 12:06:25;;;;;;;8.60;8.20;;;;;;;;;;5046498;28;20490;-86
2023/05/20 12:08:51;;;;;;;11.87;11.00;;;;;;;;;;5034431;28;20431;-86
2023/05/20 12:11:17;;;;;;;8.07;7.37;;;;;;;;;;5057900;28;20390;-83
2023/05/20 12:13:43;;;;;;;9.50;9.00;;;;;;;;;;5025564;28;20453;-84
2023/05/20 12:16:09;;;;;;;9.37;8.77;;;;;;;;;;5041945;28;20423;-82
2023/05/20 12:18:35;;;;;;;10.97;8.60;;;;;;;;;;5033499;28;20430;-84
2023/05/20 12:21:01;;;;;;;9.50;8.90;;;;;;;;;;5037111;28;20438;-85
2023/05/20 12:23:29;;;;;;;14.77;8.13;;;;;;;;;;5027921;28;20434;-84
2023/05/20 12:25:55;;;;;;;8.80;8.30;;;;;;;;;;5032448;28;21377;-83
2023/05/20 12:28:21;;;;;;;8.77;8.23;;;;;;;;;;5027650;28;20498;-83
2023/05/20 12:30:47;;;;;;;9.40;8.70;;;;;;;;;;5033815;28;20442;-84
2023/05/20 12:33:16;;;;;;;8.10;7.50;;;;;;;;;;5034475;28;20435;-84
2023/05/20 12:35:43;;;;;;;8.57;8.13;;;;;;;;;;5042124;28;20427;-83
2023/05/20 12:38:09;;;;;;;8.90;8.40;;;;;;;;;;5036800;28;20411;-82
2023/05/20 12:40:36;;;;;;;8.40;7.87;;;;;;;;;;5018005;28;20504;-82
2023/05/20 12:43:02;;;;;;;7.40;7.00;;;;;;;;;;5040120;28;20448;-83
2023/05/20 12:45:28;;;;;;;7.10;6.70;;;;;;;;;;5030976;28;20477;-83
2023/05/20 12:47:55;;;;;;;7.57;7.27;;;;;;;;;;5040693;28;20439;-83
2023/05/20 12:50:21;;;;;;;7.70;7.30;;;;;;;;;;5025378;28;20819;-84
2023/05/20 12:52:48;;;;;;;8.20;7.70;;;;;;;;;;5039745;28;20510;-84
2023/05/20 12:55:14;;;;;;;7.40;7.00;;;;;;;;;;5030055;28;20442;-84
2023/05/20 12:57:40;;;;;;;7.63;7.07;;;;;;;;;;5041394;28;20414;-83
2023/05/20 13:00:07;;;;;;;6.50;6.10;;;;;;;;;;5034372;28;20442;-83
2023/05/20 13:02:33;;;;;;;7.27;6.33;;;;;;;;;;5051351;28;20439;-84
2023/05/20 13:04:59;;;;;;;8.27;7.80;;;;;;;;;;5017731;28;20470;-85
2023/05/20 13:07:25;;;;;;;6.10;5.70;;;;;;;;;;5030974;28;20410;-84
2023/05/20 13:09:52;;;;;;;6.80;6.50;;;;;;;;;;5049475;28;20422;-81
2023/05/20 13:12:18;;;;;;;6.50;6.00;;;;;;;;;;5037498;28;20430;-83
2023/05/20 13:14:44;;;;;;;10.77;10.00;;;;;;;;;;5020338;28;20492;-83
2023/05/20 13:17:11;;;;;;;7.77;7.37;;;;;;;;;;5041032;28;20596;-83
2023/05/20 13:19:37;;;;;;;9.30;8.67;;;;;;;;;;5036768;28;20487;-84
2023/05/20 13:22:04;;;;;;;9.17;8.70;;;;;;;;;;5029643;28;20433;-83
2023/05/20 13:24:30;;;;;;;8.80;8.27;;;;;;;;;;5012734;28;20468;-83
2023/05/20 13:26:56;;;;;;;10.47;9.80;;;;;;;;;;5026021;28;20494;-85
2023/05/20 13:29:22;;;;;;;7.93;7.53;;;;;;;;;;5041529;28;20455;-84
2023/05/20 13:31:48;;;;;;;8.60;8.00;;;;;;;;;;5043562;28;20457;-86
2023/05/20 13:34:15;;;;;;;8.87;8.27;;;;;;;;;;5030699;28;20451;-86
2023/05/20 13:36:41;;;;;;;8.00;7.50;;;;;;;;;;5041920;28;20843;-85
2023/05/20 13:39:07;;;;;;;8.13;7.63;;;;;;;;;;5021423;28;20443;-85
2023/05/20 13:41:33;;;;;;;7.80;7.30;;;;;;;;;;5038688;28;20473;-85
2023/05/20 13:43:59;;;;;;;8.47;7.97;;;;;;;;;;5023021;28;20458;-85
2023/05/20 13:46:25;;;;;;;8.60;7.97;;;;;;;;;;5032943;28;20475;-81
2023/05/20 13:48:51;;;;;;;7.50;7.00;;;;;;;;;;5044058;28;20458;-83
2023/05/20 13:51:17;;;;;;;7.70;7.20;;;;;;;;;;5043285;28;20434;-83
2023/05/20 13:53:43;;;;;;;7.17;6.87;;;;;;;;;;5038191;28;20440;-82
2023/05/20 13:56:09;;;;;;;6.30;6.10;;;;;;;;;;5022461;28;20825;-84
2023/05/20 13:58:35;;;;;;;6.17;5.87;;;;;;;;;;5039791;28;20442;-85
2023/05/20 14:01:03;;;;;;;7.37;6.97;;;;;;;;;;5037907;28;20413;-82
2023/05/20 14:03:29;;;;;;;5.97;5.73;;;;;;;;;;5041755;28;20426;-84
2023/05/20 14:05:55;;;;;;;5.77;5.47;;;;;;;;;;5023625;28;20460;-82
2023/05/20 14:08:21;;;;;;;8.27;7.83;;;;;;;;;;5038724;28;20513;-84
2023/05/20 14:10:48;;;;;;;8.23;7.53;;;;;;;;;;5043666;28;20414;-85
2023/05/20 14:13:14;;;;;;;12.27;11.00;;;;;;;;;;5033796;28;20422;-86
2023/05/20 14:15:40;;;;;;;6.00;5.77;;;;;;;;;;5041960;28;20422;-85
2023/05/20 14:18:06;;;;;;;5.10;4.97;;;;;;;;;;5042028;28;20433;-85
2023/05/20 14:20:32;;;;;;;7.97;7.50;;;;;;;;;;5019142;28;20431;-84